Time;durP1;ratioP1;P1;durP2;ratioP2;P2;SDS_P1;SDS_P2;PMS_P1;PMS_P2;Temp;Humidity;BMP_temperature;BMP_pressure;BME280_temperature;BME280_humidity;BME280_pressure;Samples;Min_cycle;Max_cycle;Signal;HPM_P1;HPM_P2
2023/08/04 00:01:53;;;;;;;6.10;1.70;;;16.30;99.90;;;;;;5074184;28;20118;-63
2023/08/04 00:04:19;;;;;;;5.22;1.63;;;16.30;99.90;;;;;;5074552;28;20048;-63
2023/08/04 00:06:45;;;;;;;10.18;2.95;;;16.30;99.90;;;;;;5091685;28;20044;-64
2023/08/04 00:09:10;;;;;;;4.60;1.83;;;16.20;99.90;;;;;;5074371;28;20527;-63
2023/08/04 00:11:36;;;;;;;6.57;1.88;;;16.20;99.90;;;;;;5074632;28;20043;-63
2023/08/04 00:14:02;;;;;;;6.85;1.92;;;16.30;99.90;;;;;;5073522;28;20503;-63
2023/08/04 00:16:27;;;;;;;6.43;1.77;;;16.20;99.90;;;;;;5092474;28;20443;-63
2023/08/04 00:18:53;;;;;;;6.50;2.10;;;16.20;99.90;;;;;;5092458;28;20043;-64
2023/08/04 00:21:19;;;;;;;7.18;2.33;;;16.20;99.90;;;;;;5091909;28;20123;-64
2023/08/04 00:23:44;;;;;;;9.65;2.50;;;16.20;99.90;;;;;;5073983;28;20048;-63
2023/08/04 00:26:10;;;;;;;7.25;2.28;;;16.20;99.90;;;;;;5074480;28;20036;-64
2023/08/04 00:28:36;;;;;;;5.78;2.10;;;16.10;99.90;;;;;;5073112;28;20055;-64
2023/08/04 00:31:02;;;;;;;6.90;2.13;;;16.10;99.90;;;;;;5074133;28;20040;-63
2023/08/04 00:33:28;;;;;;;5.47;2.00;;;16.20;99.90;;;;;;5073367;28;20039;-64
2023/08/04 00:35:54;;;;;;;6.95;2.83;;;16.10;99.90;;;;;;5073946;28;20040;-63
2023/08/04 00:38:19;;;;;;;7.95;2.00;;;16.10;99.90;;;;;;5092384;28;20036;-63
2023/08/04 00:40:45;;;;;;;5.93;2.10;;;16.10;99.90;;;;;;5073058;28;20450;-63
2023/08/04 00:43:12;;;;;;;9.02;2.67;;;16.20;99.90;;;;;;5074064;28;20047;-63
2023/08/04 00:45:39;;;;;;;5.65;1.92;;;16.20;99.90;;;;;;5070125;28;20124;-63
2023/08/04 00:48:04;;;;;;;9.73;2.10;;;16.10;99.90;;;;;;5070880;28;20029;-63
2023/08/04 00:50:32;;;;;;;4.55;1.67;;;16.10;99.90;;;;;;5070654;28;20437;-63
2023/08/04 00:52:59;;;;;;;6.43;1.42;;;16.10;99.90;;;;;;5071561;28;20037;-63
2023/08/04 00:55:26;;;;;;;5.35;1.63;;;16.20;99.90;;;;;;5070145;28;20128;-63
2023/08/04 00:57:54;;;;;;;8.77;1.88;;;16.10;99.90;;;;;;5069922;28;20040;-64
2023/08/04 01:00:20;;;;;;;4.53;1.60;;;16.10;99.90;;;;;;5070750;28;20492;-63
2023/08/04 01:02:45;;;;;;;7.50;1.70;;;16.10;99.90;;;;;;5052847;28;20040;-63
2023/08/04 01:05:11;;;;;;;6.50;1.60;;;16.10;99.90;;;;;;5071661;28;20032;-63
2023/08/04 01:07:55;;;;;;;4.75;1.63;;;16.10;99.90;;;;;;5071168;28;20040;-63
2023/08/04 01:10:42;;;;;;;3.33;0.90;;;16.00;99.90;;;;;;5074986;28;20076;-63
2023/08/04 01:13:09;;;;;;;5.05;1.20;;;16.00;99.90;;;;;;5074060;28;20029;-63
2023/08/04 01:15:37;;;;;;;3.85;1.27;;;16.00;99.90;;;;;;5066795;28;20037;-63
2023/08/04 01:18:03;;;;;;;3.97;1.05;;;16.00;99.90;;;;;;5074197;28;20051;-63
2023/08/04 01:20:28;;;;;;;4.95;1.33;;;15.90;99.90;;;;;;5074548;28;20032;-63
2023/08/04 01:22:54;;;;;;;2.67;1.00;;;15.90;99.90;;;;;;5075097;28;20543;-63
2023/08/04 01:25:26;;;;;;;4.90;1.17;;;15.90;99.90;;;;;;5074208;28;20409;-63
2023/08/04 01:28:00;;;;;;;3.30;1.38;;;15.80;99.90;;;;;;5074997;28;20054;-63
2023/08/04 01:30:30;;;;;;;3.40;1.13;;;15.90;99.90;;;;;;5074933;28;20037;-64
2023/08/04 01:32:56;;;;;;;6.60;1.27;;;15.80;99.90;;;;;;5075002;28;20040;-64
2023/08/04 01:35:22;;;;;;;4.45;1.35;;;15.80;99.90;;;;;;5074374;28;20040;-64
2023/08/04 01:37:47;;;;;;;3.78;1.55;;;15.80;99.90;;;;;;5074034;28;20482;-64
2023/08/04 01:40:13;;;;;;;8.55;1.65;;;15.80;99.90;;;;;;5073699;28;20033;-64
2023/08/04 01:42:40;;;;;;;4.05;1.75;;;15.70;99.90;;;;;;5073612;28;20052;-63
2023/08/04 01:45:06;;;;;;;6.15;1.95;;;15.70;99.90;;;;;;5073498;28;20048;-64
2023/08/04 01:47:32;;;;;;;5.75;2.10;;;15.80;99.90;;;;;;5076605;28;20048;-64
2023/08/04 01:49:58;;;;;;;5.32;2.35;;;15.70;99.90;;;;;;5060601;28;20054;-64
2023/08/04 01:52:23;;;;;;;6.53;1.92;;;15.70;99.90;;;;;;5076587;28;20035;-64
2023/08/04 01:54:49;;;;;;;4.47;1.60;;;15.70;99.90;;;;;;5076384;28;20047;-64
2023/08/04 01:57:15;;;;;;;7.75;2.47;;;15.70;99.90;;;;;;5060644;28;20373;-64
2023/08/04 01:59:40;;;;;;;5.80;2.03;;;15.70;99.90;;;;;;5075806;28;20040;-64
2023/08/04 02:02:07;;;;;;;9.15;2.72;;;15.70;99.90;;;;;;5077419;28;20079;-64
2023/08/04 02:04:32;;;;;;;6.18;2.05;;;15.70;99.90;;;;;;5076570;28;20040;-63
2023/08/04 02:06:58;;;;;;;7.57;2.08;;;15.70;99.90;;;;;;5075886;28;20071;-63
2023/08/04 02:09:27;;;;;;;4.90;2.20;;;15.70;99.90;;;;;;5094707;28;20090;-64
2023/08/04 02:11:54;;;;;;;9.65;2.10;;;15.70;99.90;;;;;;5094292;28;20404;-64
2023/08/04 02:14:20;;;;;;;5.55;1.90;;;15.70;99.90;;;;;;5076605;28;20055;-64
2023/08/04 02:16:45;;;;;;;4.85;2.10;;;15.70;99.90;;;;;;5075879;28;20048;-64
2023/08/04 02:19:11;;;;;;;7.50;1.65;;;15.70;99.90;;;;;;5075771;28;20155;-63
2023/08/04 02:21:37;;;;;;;6.07;2.05;;;15.70;99.90;;;;;;5076358;28;20121;-63
2023/08/04 02:24:03;;;;;;;6.47;1.85;;;15.60;99.90;;;;;;5076379;28;20127;-63
2023/08/04 02:26:29;;;;;;;7.93;2.33;;;15.70;99.90;;;;;;5093428;28;20534;-63
2023/08/04 02:28:55;;;;;;;6.60;2.75;;;15.60;99.90;;;;;;5094224;28;20114;-63
2023/08/04 02:31:23;;;;;;;5.28;2.10;;;15.70;99.90;;;;;;5076593;28;20032;-63
2023/08/04 02:33:50;;;;;;;6.28;2.35;;;15.70;99.90;;;;;;5058573;28;20051;-63
2023/08/04 02:36:16;;;;;;;8.70;2.13;;;15.60;99.90;;;;;;5094114;28;20059;-63
2023/08/04 02:38:42;;;;;;;6.93;2.38;;;15.70;99.90;;;;;;5074725;28;20562;-63
2023/08/04 02:41:09;;;;;;;8.40;2.30;;;15.70;99.90;;;;;;5093705;28;20075;-63
2023/08/04 02:43:35;;;;;;;8.18;2.40;;;15.70;99.90;;;;;;5075798;28;20489;-63
2023/08/04 02:46:01;;;;;;;6.32;2.15;;;15.70;99.90;;;;;;5075862;28;20048;-63
2023/08/04 02:48:27;;;;;;;6.72;2.45;;;15.70;99.90;;;;;;5093417;28;20096;-63
2023/08/04 02:51:02;;;;;;;5.53;2.20;;;15.70;99.90;;;;;;5076024;28;20036;-63
2023/08/04 02:53:28;;;;;;;7.90;2.42;;;15.60;99.90;;;;;;5075798;28;20077;-63
2023/08/04 02:55:54;;;;;;;4.63;1.95;;;15.60;99.90;;;;;;5075073;28;20040;-63
2023/08/04 02:58:19;;;;;;;8.25;2.10;;;15.60;99.90;;;;;;5076136;28;20119;-63
2023/08/04 03:00:46;;;;;;;7.20;2.40;;;15.60;99.90;;;;;;5075461;28;20047;-63
2023/08/04 03:03:11;;;;;;;6.05;2.50;;;15.50;99.90;;;;;;5075583;28;20055;-63
2023/08/04 03:05:37;;;;;;;6.70;2.40;;;15.60;99.90;;;;;;5075874;28;20473;-63
2023/08/04 03:08:03;;;;;;;6.05;2.33;;;15.50;99.90;;;;;;5093029;28;20508;-63
2023/08/04 03:10:29;;;;;;;5.88;2.67;;;15.50;99.90;;;;;;5092791;28;20039;-63
2023/08/04 03:12:54;;;;;;;7.22;2.92;;;15.50;99.90;;;;;;5075595;28;20207;-63
2023/08/04 03:15:20;;;;;;;6.57;2.00;;;15.50;99.90;;;;;;5093084;28;20032;-63
2023/08/04 03:17:46;;;;;;;8.13;1.98;;;15.50;99.90;;;;;;5074633;28;20071;-63
2023/08/04 03:20:11;;;;;;;7.40;2.50;;;15.50;99.90;;;;;;5075515;28;20035;-64
2023/08/04 03:22:37;;;;;;;7.75;2.20;;;15.50;99.90;;;;;;5092869;28;20111;-64
2023/08/04 03:25:03;;;;;;;6.57;2.47;;;15.50;99.90;;;;;;5074973;28;20047;-63
2023/08/04 03:27:29;;;;;;;5.45;1.90;;;15.50;99.90;;;;;;5058694;28;20142;-64
2023/08/04 03:29:55;;;;;;;5.18;1.75;;;15.50;99.90;;;;;;5073754;28;20051;-63
2023/08/04 03:32:20;;;;;;;6.20;2.20;;;15.50;99.90;;;;;;5093387;28;20059;-63
2023/08/04 03:34:46;;;;;;;4.75;1.42;;;15.40;99.90;;;;;;5075063;28;20044;-63
2023/08/04 03:37:12;;;;;;;5.07;1.92;;;15.40;99.90;;;;;;5074411;28;20500;-63
2023/08/04 03:39:37;;;;;;;8.25;2.95;;;15.40;99.90;;;;;;5092566;28;20043;-64
2023/08/04 03:42:03;;;;;;;7.05;2.13;;;15.40;99.90;;;;;;5093069;28;20051;-63
2023/08/04 03:44:29;;;;;;;10.02;2.45;;;15.40;99.90;;;;;;5074301;28;20081;-63
2023/08/04 03:46:55;;;;;;;6.82;2.38;;;15.40;99.90;;;;;;5092671;28;20048;-63
2023/08/04 03:49:20;;;;;;;5.90;2.50;;;15.50;99.90;;;;;;5074927;28;20044;-63
2023/08/04 03:51:46;;;;;;;5.55;2.40;;;15.40;99.90;;;;;;5056987;28;20118;-63
2023/08/04 03:54:12;;;;;;;6.88;2.03;;;15.50;99.90;;;;;;5058342;28;20043;-63
2023/08/04 03:56:37;;;;;;;9.88;2.42;;;15.40;99.90;;;;;;5075114;28;20388;-63
2023/08/04 03:59:03;;;;;;;7.82;2.95;;;15.50;99.90;;;;;;5073954;28;20032;-63
2023/08/04 04:01:29;;;;;;;5.65;2.17;;;15.40;99.90;;;;;;5092749;28;20392;-63
2023/08/04 04:03:54;;;;;;;7.13;2.45;;;15.50;99.90;;;;;;5073916;28;20036;-63
2023/08/04 04:06:20;;;;;;;5.72;2.40;;;15.50;99.90;;;;;;5073742;28;20077;-63
2023/08/04 04:08:45;;;;;;;6.75;2.88;;;15.50;99.90;;;;;;5073895;28;20035;-63
2023/08/04 04:11:11;;;;;;;8.15;2.83;;;15.50;99.90;;;;;;5074687;28;20123;-63
2023/08/04 04:13:37;;;;;;;10.13;2.70;;;15.40;99.90;;;;;;5073492;28;20412;-63
2023/08/04 04:16:03;;;;;;;6.82;3.55;;;15.50;99.90;;;;;;5074274;28;20044;-63
2023/08/04 04:18:28;;;;;;;7.13;2.63;;;15.50;99.90;;;;;;5073479;28;20126;-63
2023/08/04 04:20:54;;;;;;;6.82;2.60;;;15.50;99.90;;;;;;5057617;28;20055;-63
2023/08/04 04:23:20;;;;;;;7.30;2.78;;;15.50;99.90;;;;;;5074669;28;20137;-63
2023/08/04 04:25:45;;;;;;;9.15;3.85;;;15.50;99.90;;;;;;5091323;28;20067;-63
2023/08/04 04:28:11;;;;;;;6.70;3.05;;;15.50;99.90;;;;;;5057533;28;20043;-63
2023/08/04 04:30:37;;;;;;;11.05;2.97;;;15.50;99.90;;;;;;5074200;28;20043;-63
2023/08/04 04:33:02;;;;;;;6.60;3.47;;;15.50;99.90;;;;;;5073282;28;20062;-63
2023/08/04 04:35:28;;;;;;;10.05;3.20;;;15.60;99.90;;;;;;5073872;28;20040;-63
2023/08/04 04:37:54;;;;;;;8.40;2.55;;;15.50;99.90;;;;;;5074218;28;20378;-63
2023/08/04 04:40:19;;;;;;;6.35;2.40;;;15.50;99.90;;;;;;5072701;28;20070;-63
2023/08/04 04:42:45;;;;;;;7.15;2.67;;;15.60;99.90;;;;;;5090722;28;20081;-63
2023/08/04 04:45:11;;;;;;;6.53;2.63;;;15.50;99.90;;;;;;5073320;28;20027;-63
2023/08/04 04:47:37;;;;;;;8.15;2.92;;;15.60;99.90;;;;;;5071058;28;20052;-63
2023/08/04 04:50:02;;;;;;;6.35;2.53;;;15.70;99.90;;;;;;5068367;28;20036;-63
2023/08/04 04:52:31;;;;;;;6.90;2.40;;;15.60;99.90;;;;;;5072279;28;20028;-63
2023/08/04 04:54:57;;;;;;;5.18;2.65;;;15.70;99.90;;;;;;5087363;28;20036;-63
2023/08/04 04:57:23;;;;;;;7.65;2.53;;;15.70;99.90;;;;;;5057565;28;20051;-63
2023/08/04 04:59:49;;;;;;;4.90;2.13;;;15.70;99.90;;;;;;5072917;28;20052;-63
2023/08/04 05:02:15;;;;;;;15.02;2.83;;;15.70;99.90;;;;;;5091483;28;20048;-63
2023/08/04 05:04:40;;;;;;;5.38;2.13;;;15.80;99.90;;;;;;5091641;28;20039;-63
2023/08/04 05:07:06;;;;;;;5.47;2.15;;;15.80;99.90;;;;;;5092029;28;20051;-63
2023/08/04 05:09:32;;;;;;;9.93;2.28;;;15.70;99.90;;;;;;5072560;28;20105;-63
2023/08/04 05:11:57;;;;;;;5.57;2.28;;;15.80;99.90;;;;;;5056898;28;20063;-63
2023/08/04 05:14:23;;;;;;;5.55;2.63;;;15.80;99.90;;;;;;5074068;28;20393;-63
2023/08/04 05:16:49;;;;;;;5.50;2.17;;;15.70;99.90;;;;;;5072684;28;20123;-63
2023/08/04 05:19:14;;;;;;;5.93;2.33;;;15.70;99.90;;;;;;5073727;28;20029;-63
2023/08/04 05:21:40;;;;;;;4.68;1.90;;;15.80;99.90;;;;;;5073424;28;20044;-63
2023/08/04 05:24:05;;;;;;;6.53;2.50;;;15.80;99.90;;;;;;5073135;28;20040;-63
2023/08/04 05:26:31;;;;;;;5.95;2.92;;;15.80;99.90;;;;;;5073297;28;20075;-63
2023/08/04 05:28:57;;;;;;;9.45;2.70;;;15.80;99.90;;;;;;5090475;28;20054;-63
2023/08/04 05:31:23;;;;;;;4.80;2.20;;;15.80;99.90;;;;;;5073620;28;20040;-63
2023/08/04 05:33:48;;;;;;;6.57;2.30;;;15.90;99.90;;;;;;5091051;28;20456;-63
2023/08/04 05:36:14;;;;;;;8.35;2.58;;;15.90;99.90;;;;;;5073149;28;20512;-63
2023/08/04 05:38:40;;;;;;;7.22;2.63;;;15.90;99.90;;;;;;5072789;28;20048;-63
2023/08/04 05:41:05;;;;;;;6.18;2.70;;;15.90;99.90;;;;;;5074019;28;20044;-63
2023/08/04 05:43:31;;;;;;;6.40;2.08;;;16.00;99.90;;;;;;5073066;28;20036;-63
2023/08/04 05:46:05;;;;;;;5.20;2.33;;;16.00;99.90;;;;;;5073029;28;20127;-63
2023/08/04 05:48:32;;;;;;;6.38;2.70;;;16.00;99.90;;;;;;5073490;28;20078;-63
2023/08/04 05:50:58;;;;;;;6.35;2.55;;;16.00;99.90;;;;;;5090481;28;20103;-63
2023/08/04 05:53:24;;;;;;;5.55;2.70;;;16.00;99.90;;;;;;5092700;28;20483;-63
2023/08/04 05:55:50;;;;;;;4.88;2.13;;;16.10;99.90;;;;;;5076873;28;20079;-63
2023/08/04 05:58:16;;;;;;;7.07;2.47;;;16.10;99.90;;;;;;5076239;28;20123;-63
2023/08/04 06:00:41;;;;;;;5.70;2.33;;;16.20;99.90;;;;;;5076417;28;20442;-63
2023/08/04 06:03:07;;;;;;;6.70;2.45;;;16.30;99.90;;;;;;5095066;28;20035;-63
2023/08/04 06:05:33;;;;;;;4.78;2.53;;;16.20;99.90;;;;;;5093954;28;20044;-63
2023/08/04 06:07:58;;;;;;;6.57;3.05;;;16.30;99.90;;;;;;5095092;28;20035;-63
2023/08/04 06:10:25;;;;;;;7.13;2.38;;;16.20;99.90;;;;;;5060020;28;20044;-63
2023/08/04 06:12:51;;;;;;;6.43;2.40;;;16.30;99.90;;;;;;5075403;28;20067;-63
2023/08/04 06:15:17;;;;;;;8.35;2.88;;;16.30;99.90;;;;;;5076080;28;20480;-63
2023/08/04 06:17:43;;;;;;;6.25;3.25;;;16.40;99.90;;;;;;5059056;28;20077;-63
2023/08/04 06:20:09;;;;;;;6.53;2.58;;;16.40;99.90;;;;;;5088253;28;20539;-63
2023/08/04 06:22:36;;;;;;;6.35;2.75;;;16.50;99.90;;;;;;5076708;28;20032;-63
2023/08/04 06:25:03;;;;;;;8.38;3.38;;;16.60;99.90;;;;;;5073474;28;20237;-63
2023/08/04 06:27:29;;;;;;;4.57;2.10;;;16.60;99.90;;;;;;5091409;28;20043;-63
2023/08/04 06:29:55;;;;;;;5.88;2.50;;;16.70;99.90;;;;;;5089834;28;20040;-63
2023/08/04 06:32:21;;;;;;;5.72;2.00;;;16.70;99.90;;;;;;5091072;28;20071;-63
2023/08/04 06:34:46;;;;;;;6.32;1.98;;;16.70;99.90;;;;;;5072868;28;20125;-63
2023/08/04 06:37:12;;;;;;;4.70;2.17;;;16.70;99.90;;;;;;5073648;28;20086;-63
2023/08/04 06:39:38;;;;;;;5.35;2.00;;;16.70;99.90;;;;;;5072716;28;20044;-63
2023/08/04 06:42:04;;;;;;;6.03;2.55;;;16.70;99.90;;;;;;5073086;28;20040;-63
2023/08/04 06:44:30;;;;;;;5.35;2.03;;;16.80;99.90;;;;;;5090992;28;20052;-63
2023/08/04 06:46:56;;;;;;;7.25;2.38;;;16.70;99.90;;;;;;5090493;28;20096;-63
2023/08/04 06:49:21;;;;;;;4.82;2.50;;;16.70;99.90;;;;;;5073283;28;20060;-63
2023/08/04 06:51:49;;;;;;;6.93;2.67;;;16.80;99.90;;;;;;5056369;28;20505;-63
2023/08/04 06:54:19;;;;;;;6.28;2.05;;;16.80;99.90;;;;;;5091068;28;20492;-63
2023/08/04 06:56:44;;;;;;;5.75;2.20;;;16.80;99.90;;;;;;5072771;28;20058;-63
2023/08/04 06:59:11;;;;;;;3.97;1.88;;;16.80;99.90;;;;;;5070450;28;20767;-63
2023/08/04 07:01:36;;;;;;;5.60;2.22;;;16.80;99.90;;;;;;5076946;28;20495;-63
2023/08/04 07:04:02;;;;;;;9.60;3.20;;;16.80;99.90;;;;;;5090551;28;20177;-63
2023/08/04 07:06:29;;;;;;;6.78;2.50;;;16.70;99.90;;;;;;5072567;28;20404;-63
2023/08/04 07:08:54;;;;;;;6.85;2.38;;;16.70;99.90;;;;;;5054449;28;20044;-63
2023/08/04 07:11:20;;;;;;;6.47;2.50;;;16.60;99.90;;;;;;5072847;28;20043;-63
2023/08/04 07:13:46;;;;;;;8.45;2.45;;;16.50;99.90;;;;;;5067302;28;20147;-63
2023/08/04 07:16:12;;;;;;;5.75;2.38;;;16.50;99.90;;;;;;5071738;28;20051;-63
2023/08/04 07:18:38;;;;;;;9.35;2.85;;;16.50;99.90;;;;;;5072625;28;20044;-63
2023/08/04 07:21:09;;;;;;;6.65;2.55;;;16.40;99.90;;;;;;5090482;28;20081;-63
2023/08/04 07:23:35;;;;;;;5.90;2.33;;;16.50;99.90;;;;;;5089922;28;20073;-63
2023/08/04 07:26:03;;;;;;;8.38;2.50;;;16.50;99.90;;;;;;5085462;28;20123;-63
2023/08/04 07:28:28;;;;;;;7.60;2.50;;;16.60;99.90;;;;;;5060725;28;20055;-63
2023/08/04 07:30:54;;;;;;;4.85;2.10;;;16.60;99.90;;;;;;5069270;28;20036;-63
2023/08/04 07:33:21;;;;;;;8.10;2.97;;;16.70;99.90;;;;;;5072475;28;20115;-63
2023/08/04 07:35:52;;;;;;;7.18;2.70;;;16.80;99.90;;;;;;5089594;28;20032;-63
2023/08/04 07:38:18;;;;;;;10.85;2.30;;;16.90;99.90;;;;;;5072009;28;20476;-63
2023/08/04 07:40:44;;;;;;;6.88;2.20;;;17.00;99.90;;;;;;5071317;28;20035;-63
2023/08/04 07:43:11;;;;;;;9.68;2.50;;;17.00;99.90;;;;;;5089212;28;20508;-62
2023/08/04 07:45:38;;;;;;;5.95;1.90;;;17.00;99.90;;;;;;5077823;28;20103;-63
2023/08/04 07:48:04;;;;;;;8.27;2.83;;;17.10;99.90;;;;;;5066392;28;20066;-63
2023/08/04 07:50:29;;;;;;;6.60;2.10;;;17.10;99.90;;;;;;5054185;28;20491;-63
2023/08/04 07:52:55;;;;;;;9.02;2.10;;;17.20;99.90;;;;;;5089819;28;20115;-63
2023/08/04 07:55:22;;;;;;;6.88;2.70;;;17.20;99.90;;;;;;5085769;28;20036;-63
2023/08/04 07:57:48;;;;;;;6.68;2.20;;;17.30;99.90;;;;;;5051203;28;20044;-63
2023/08/04 08:00:14;;;;;;;8.32;2.70;;;17.40;99.90;;;;;;5064349;28;20047;-63
2023/08/04 08:02:40;;;;;;;7.47;2.50;;;17.40;99.90;;;;;;5071303;28;20473;-62
2023/08/04 08:05:07;;;;;;;7.30;2.10;;;17.50;99.90;;;;;;5071303;28;20089;-63
2023/08/04 08:07:36;;;;;;;11.00;2.25;;;17.50;99.90;;;;;;5072151;28;20492;-63
2023/08/04 08:10:02;;;;;;;7.68;1.98;;;17.50;99.90;;;;;;5072141;28;20032;-63
2023/08/04 08:12:29;;;;;;;4.63;1.67;;;17.60;99.90;;;;;;5070906;28;20569;-63
2023/08/04 08:14:55;;;;;;;6.63;1.80;;;17.70;99.90;;;;;;5071802;28;20068;-63
2023/08/04 08:17:21;;;;;;;6.10;1.70;;;17.80;99.90;;;;;;5071971;28;20785;-63
2023/08/04 08:19:47;;;;;;;5.32;2.00;;;17.80;99.90;;;;;;5088453;28;20028;-63
2023/08/04 08:22:12;;;;;;;10.05;2.15;;;17.90;99.90;;;;;;5080841;28;20044;-63
2023/08/04 08:24:38;;;;;;;5.13;1.40;;;17.90;99.90;;;;;;5064294;28;20408;-63
2023/08/04 08:27:04;;;;;;;6.55;2.13;;;17.90;99.90;;;;;;5071174;28;20051;-63
2023/08/04 08:29:30;;;;;;;6.22;2.00;;;17.90;99.90;;;;;;5069023;28;20546;-63
2023/08/04 08:31:55;;;;;;;7.03;2.15;;;17.90;99.90;;;;;;5080309;28;20029;-63
2023/08/04 08:34:21;;;;;;;5.95;1.85;;;18.00;99.90;;;;;;5071408;28;20511;-63
2023/08/04 08:36:47;;;;;;;8.63;1.83;;;18.00;99.90;;;;;;5071580;28;20185;-63
2023/08/04 08:39:13;;;;;;;6.40;2.05;;;18.00;99.90;;;;;;5071289;28;20078;-62
2023/08/04 08:41:38;;;;;;;7.35;1.88;;;18.10;99.90;;;;;;5059134;28;20044;-63
2023/08/04 08:44:04;;;;;;;8.32;1.70;;;18.00;99.90;;;;;;5064462;28;20439;-63
2023/08/04 08:46:30;;;;;;;5.70;2.13;;;17.80;99.90;;;;;;5087256;28;20052;-63
2023/08/04 08:48:58;;;;;;;6.45;1.95;;;17.70;99.90;;;;;;5065227;28;20080;-63
2023/08/04 08:51:26;;;;;;;7.40;2.10;;;17.70;99.90;;;;;;5074956;28;20119;-63
2023/08/04 08:53:53;;;;;;;7.68;2.28;;;17.70;99.90;;;;;;5089999;28;20460;-63
2023/08/04 08:56:19;;;;;;;5.97;2.40;;;17.80;99.90;;;;;;5057190;28;20032;-63
2023/08/04 08:58:45;;;;;;;9.85;3.25;;;17.90;99.90;;;;;;5074158;28;20465;-64
2023/08/04 09:01:11;;;;;;;6.15;2.20;;;18.00;99.90;;;;;;5073624;28;20046;-64
2023/08/04 09:03:38;;;;;;;7.60;2.90;;;18.10;99.90;;;;;;5091884;28;20036;-64
2023/08/04 09:06:04;;;;;;;6.55;2.20;;;18.20;99.90;;;;;;5091779;28;20097;-63
2023/08/04 09:08:31;;;;;;;8.05;2.47;;;18.20;99.90;;;;;;5072202;28;20051;-63
2023/08/04 09:10:58;;;;;;;6.03;2.28;;;18.10;99.90;;;;;;5091978;28;20036;-64
2023/08/04 09:13:26;;;;;;;6.72;2.78;;;18.00;99.90;;;;;;5073783;28;20036;-64
2023/08/04 09:15:54;;;;;;;9.93;2.85;;;17.90;99.90;;;;;;5090877;28;20384;-64
2023/08/04 09:18:37;;;;;;;8.38;2.70;;;17.70;99.90;;;;;;5092146;28;20115;-64
2023/08/04 09:21:11;;;;;;;7.50;2.70;;;17.60;99.90;;;;;;5069186;28;20427;-64
2023/08/04 09:23:49;;;;;;;8.95;2.15;;;17.60;99.90;;;;;;5073762;28;20036;-64
2023/08/04 09:26:15;;;;;;;9.73;2.72;;;17.60;99.90;;;;;;5073247;28;20048;-64
2023/08/04 09:28:41;;;;;;;6.82;2.75;;;17.60;99.90;;;;;;5073577;28;20071;-64
2023/08/04 09:31:09;;;;;;;8.55;2.28;;;17.50;99.90;;;;;;5061681;28;20075;-64
2023/08/04 09:33:41;;;;;;;8.85;2.45;;;17.70;99.90;;;;;;5078200;28;20050;-64
2023/08/04 09:36:17;;;;;;;8.27;2.10;;;17.80;99.90;;;;;;5060470;28;20082;-64
2023/08/04 09:38:44;;;;;;;4.75;1.88;;;18.00;99.90;;;;;;5076097;28;20032;-64
2023/08/04 09:41:15;;;;;;;7.45;2.45;;;18.10;99.90;;;;;;5075604;28;20056;-63
2023/08/04 09:43:53;;;;;;;7.82;2.55;;;18.40;99.90;;;;;;5054619;28;20039;-63
2023/08/04 09:46:19;;;;;;;5.18;2.10;;;18.70;99.90;;;;;;5077444;28;20401;-63
2023/08/04 09:48:45;;;;;;;5.68;2.00;;;18.90;99.90;;;;;;5076871;28;20044;-64
2023/08/04 09:51:12;;;;;;;6.10;1.98;;;19.10;99.90;;;;;;5076860;28;20047;-63
2023/08/04 09:53:49;;;;;;;9.65;1.77;;;19.00;99.90;;;;;;5077205;28;20496;-63
2023/08/04 09:56:17;;;;;;;3.75;1.25;;;18.90;99.90;;;;;;5077163;28;20040;-63
2023/08/04 09:58:44;;;;;;;5.97;1.52;;;19.00;99.90;;;;;;5094242;28;20480;-63
2023/08/04 10:01:10;;;;;;;3.85;1.30;;;19.00;99.90;;;;;;5077280;28;20036;-64
2023/08/04 10:03:54;;;;;;;7.10;2.15;;;18.90;99.90;;;;;;5094357;28;20051;-63
2023/08/04 10:06:20;;;;;;;3.72;1.80;;;19.00;99.90;;;;;;5076895;28;20060;-63
2023/08/04 10:08:49;;;;;;;6.18;1.70;;;19.10;99.90;;;;;;5094238;28;20044;-63
2023/08/04 10:11:15;;;;;;;4.53;1.27;;;19.10;99.90;;;;;;5076361;28;20044;-63
2023/08/04 10:13:43;;;;;;;5.10;1.63;;;18.90;99.90;;;;;;5094436;28;20051;-63
2023/08/04 10:16:14;;;;;;;7.38;1.52;;;18.80;99.90;;;;;;5095373;28;20063;-63
2023/08/04 10:18:50;;;;;;;7.35;2.17;;;18.80;99.90;;;;;;5093717;28;20048;-62
2023/08/04 10:21:18;;;;;;;5.60;1.42;;;18.90;99.90;;;;;;5076904;28;20052;-63
2023/08/04 10:23:44;;;;;;;4.97;1.85;;;19.00;99.90;;;;;;5075884;28;20042;-63
2023/08/04 10:26:12;;;;;;;5.70;1.70;;;19.00;99.90;;;;;;5076034;28;20123;-63
2023/08/04 10:28:58;;;;;;;6.15;2.10;;;19.00;99.90;;;;;;5074127;28;20036;-62
2023/08/04 10:31:52;;;;;;;7.85;2.45;;;19.00;99.90;;;;;;5054267;28;20044;-62
2023/08/04 10:34:25;;;;;;;6.90;2.13;;;19.00;99.90;;;;;;5090972;28;20047;-62
2023/08/04 10:37:10;;;;;;;5.95;1.65;;;19.10;99.90;;;;;;5073017;28;20040;-62
2023/08/04 10:39:36;;;;;;;7.97;2.63;;;19.10;99.90;;;;;;5072290;28;20044;-63
2023/08/04 10:42:11;;;;;;;8.32;2.00;;;19.30;99.90;;;;;;5073018;28;20404;-63
2023/08/04 10:45:04;;;;;;;3.55;1.50;;;19.40;99.90;;;;;;5056683;28;20051;-62
2023/08/04 10:47:53;;;;;;;5.05;2.20;;;19.40;99.90;;;;;;5072506;28;20062;-62
2023/08/04 10:50:19;;;;;;;6.25;1.58;;;19.40;99.90;;;;;;5064111;28;20047;-62
2023/08/04 10:52:45;;;;;;;5.70;1.88;;;19.20;99.90;;;;;;5090297;28;20036;-62
2023/08/04 10:55:12;;;;;;;7.25;2.45;;;19.00;99.90;;;;;;5090713;28;20036;-62
2023/08/04 10:57:40;;;;;;;6.72;1.83;;;18.90;99.90;;;;;;5075630;28;20040;-62
2023/08/04 11:00:11;;;;;;;6.45;2.33;;;18.80;99.90;;;;;;5075042;28;20075;-62
2023/08/04 11:02:38;;;;;;;7.97;2.45;;;18.60;99.90;;;;;;5074914;28;20044;-62
2023/08/04 11:05:08;;;;;;;8.30;2.38;;;18.60;99.90;;;;;;5075620;28;20605;-61
2023/08/04 11:07:35;;;;;;;6.63;2.85;;;18.50;99.90;;;;;;5074684;28;20051;-61
2023/08/04 11:10:06;;;;;;;6.85;2.40;;;18.50;99.90;;;;;;5059152;28;20097;-61
2023/08/04 11:12:36;;;;;;;6.30;2.10;;;18.60;99.90;;;;;;5075765;28;20046;-61
2023/08/04 11:15:02;;;;;;;9.35;2.70;;;18.70;99.90;;;;;;5075021;28;20121;-61
2023/08/04 11:17:28;;;;;;;9.75;2.53;;;18.80;99.90;;;;;;5075616;28;20069;-61
2023/08/04 11:19:53;;;;;;;7.35;2.30;;;19.00;99.90;;;;;;5093332;28;20119;-61
2023/08/04 11:22:23;;;;;;;5.57;2.30;;;19.10;99.90;;;;;;5092941;28;20173;-61
2023/08/04 11:24:51;;;;;;;5.47;2.25;;;19.20;99.90;;;;;;5075306;28;20111;-61
2023/08/04 11:27:17;;;;;;;7.25;2.67;;;19.30;99.90;;;;;;5093362;28;20476;-61
2023/08/04 11:29:43;;;;;;;7.82;2.20;;;19.50;99.90;;;;;;5074447;28;20051;-61
2023/08/04 11:32:17;;;;;;;5.50;2.03;;;19.70;99.90;;;;;;5093618;28;20036;-61
2023/08/04 11:34:43;;;;;;;5.55;1.80;;;19.90;99.90;;;;;;5091960;28;20043;-62
2023/08/04 11:37:09;;;;;;;4.05;1.90;;;20.00;99.90;;;;;;5093449;28;20559;-61
2023/08/04 11:39:37;;;;;;;5.78;2.03;;;19.90;99.90;;;;;;5075350;28;20512;-61
2023/08/04 11:42:03;;;;;;;7.32;2.20;;;19.70;99.90;;;;;;5074594;28;20370;-61
2023/08/04 11:44:30;;;;;;;7.32;2.58;;;19.40;99.90;;;;;;5093062;28;20039;-61
2023/08/04 11:46:56;;;;;;;7.97;2.65;;;19.20;99.90;;;;;;5074606;28;20439;-61
2023/08/04 11:49:23;;;;;;;9.05;2.38;;;19.10;99.90;;;;;;5073756;28;20102;-61
2023/08/04 11:51:49;;;;;;;7.43;2.90;;;19.10;99.90;;;;;;5073834;28;20455;-61
2023/08/04 11:54:23;;;;;;;7.32;2.42;;;19.10;99.90;;;;;;5075004;28;20040;-61
2023/08/04 11:56:56;;;;;;;6.03;2.67;;;19.20;99.90;;;;;;5056882;28;20044;-61
2023/08/04 11:59:22;;;;;;;9.70;3.20;;;19.30;99.90;;;;;;5074679;28;20043;-61
2023/08/04 12:01:49;;;;;;;7.75;2.47;;;19.30;99.90;;;;;;5057594;28;20404;-61
2023/08/04 12:04:25;;;;;;;7.57;2.78;;;19.30;99.90;;;;;;5057466;28;20051;-60
2023/08/04 12:07:07;;;;;;;7.13;2.83;;;19.30;99.90;;;;;;5092366;28;20069;-61
2023/08/04 12:09:33;;;;;;;8.93;2.40;;;19.30;99.90;;;;;;5074029;28;20123;-61
2023/08/04 12:11:59;;;;;;;9.00;3.15;;;19.40;99.90;;;;;;5091696;28;20223;-61
2023/08/04 12:14:25;;;;;;;7.80;2.70;;;19.50;99.90;;;;;;5058392;28;20362;-61
2023/08/04 12:17:02;;;;;;;8.27;2.60;;;19.60;99.90;;;;;;5056512;28;20047;-61
2023/08/04 12:19:30;;;;;;;8.68;2.50;;;19.60;99.90;;;;;;5074283;28;20040;-61
2023/08/04 12:22:00;;;;;;;6.75;2.70;;;19.60;99.90;;;;;;5074235;28;20051;-61
2023/08/04 12:24:30;;;;;;;7.70;2.55;;;19.40;99.90;;;;;;5074072;28;20044;-61
2023/08/04 12:26:56;;;;;;;7.07;2.65;;;19.20;99.90;;;;;;5074284;28;20405;-61
2023/08/04 12:29:22;;;;;;;6.93;2.47;;;19.10;99.90;;;;;;5074798;28;20044;-61
2023/08/04 12:31:49;;;;;;;8.15;2.70;;;19.10;99.90;;;;;;5073160;28;20043;-61
2023/08/04 12:34:15;;;;;;;11.52;3.15;;;19.30;99.90;;;;;;5092624;28;20153;-61
2023/08/04 12:36:41;;;;;;;11.55;2.85;;;19.40;99.90;;;;;;5091937;28;20503;-61
2023/08/04 12:39:12;;;;;;;6.10;2.90;;;19.50;99.90;;;;;;5073450;28;20051;-61
2023/08/04 12:41:38;;;;;;;7.32;3.05;;;19.50;99.90;;;;;;5092435;28;20066;-62
2023/08/04 12:44:04;;;;;;;7.53;2.85;;;19.60;99.90;;;;;;5092332;28;20481;-61
2023/08/04 12:46:29;;;;;;;7.97;2.63;;;19.70;99.90;;;;;;5073040;28;20052;-61